sensor_id;sensor_type;location;lat;lon;timestamp;P1;durP1;ratioP1;P2;durP2;ratioP2
48403;SDS011;34202;52.536;6.042;2022-08-16T00:02:14;17.40;;;13.70;;
48403;SDS011;34202;52.536;6.042;2022-08-16T00:07:14;19.30;;;14.10;;
48403;SDS011;34202;52.536;6.042;2022-08-16T00:12:14;19.40;;;13.60;;
48403;SDS011;34202;52.536;6.042;2022-08-16T00:17:15;13.50;;;12.10;;
48403;SDS011;34202;52.536;6.042;2022-08-16T00:22:15;14.60;;;10.70;;
48403;SDS011;34202;52.536;6.042;2022-08-16T00:27:16;14.10;;;10.30;;
48403;SDS011;34202;52.536;6.042;2022-08-16T00:32:17;11.50;;;10.30;;
48403;SDS011;34202;52.536;6.042;2022-08-16T00:37:18;10.30;;;9.20;;
48403;SDS011;34202;52.536;6.042;2022-08-16T00:42:21;11.70;;;8.50;;
48403;SDS011;34202;52.536;6.042;2022-08-16T00:47:23;11.90;;;8.10;;
48403;SDS011;34202;52.536;6.042;2022-08-16T00:52:25;8.40;;;6.50;;
48403;SDS011;34202;52.536;6.042;2022-08-16T00:57:26;10.10;;;8.00;;
48403;SDS011;34202;52.536;6.042;2022-08-16T01:02:27;13.20;;;7.80;;
48403;SDS011;34202;52.536;6.042;2022-08-16T01:07:27;9.20;;;8.10;;
48403;SDS011;34202;52.536;6.042;2022-08-16T01:12:28;11.50;;;8.50;;
48403;SDS011;34202;52.536;6.042;2022-08-16T01:17:28;9.70;;;8.70;;
48403;SDS011;34202;52.536;6.042;2022-08-16T01:22:33;10.10;;;9.20;;
48403;SDS011;34202;52.536;6.042;2022-08-16T01:27:52;12.20;;;9.60;;
48403;SDS011;34202;52.536;6.042;2022-08-16T01:32:55;10.30;;;9.30;;
48403;SDS011;34202;52.536;6.042;2022-08-16T01:38:12;10.30;;;8.60;;
48403;SDS011;34202;52.536;6.042;2022-08-16T01:43:23;11.40;;;8.70;;
48403;SDS011;34202;52.536;6.042;2022-08-16T01:48:26;12.00;;;8.70;;
48403;SDS011;34202;52.536;6.042;2022-08-16T01:53:29;12.00;;;8.90;;
48403;SDS011;34202;52.536;6.042;2022-08-16T01:58:30;12.30;;;8.30;;
48403;SDS011;34202;52.536;6.042;2022-08-16T02:03:31;12.20;;;9.00;;
48403;SDS011;34202;52.536;6.042;2022-08-16T02:08:33;9.20;;;7.60;;
48403;SDS011;34202;52.536;6.042;2022-08-16T02:13:34;9.60;;;8.60;;
48403;SDS011;34202;52.536;6.042;2022-08-16T02:18:36;10.00;;;8.20;;
48403;SDS011;34202;52.536;6.042;2022-08-16T02:23:37;11.90;;;8.40;;
48403;SDS011;34202;52.536;6.042;2022-08-16T02:28:37;17.80;;;8.80;;
48403;SDS011;34202;52.536;6.042;2022-08-16T02:33:38;10.30;;;7.80;;
48403;SDS011;34202;52.536;6.042;2022-08-16T02:38:39;9.50;;;7.60;;
48403;SDS011;34202;52.536;6.042;2022-08-16T02:43:40;11.70;;;7.90;;
48403;SDS011;34202;52.536;6.042;2022-08-16T02:48:40;16.00;;;8.50;;
48403;SDS011;34202;52.536;6.042;2022-08-16T02:53:42;9.40;;;8.10;;
48403;SDS011;34202;52.536;6.042;2022-08-16T02:58:44;9.60;;;8.60;;
48403;SDS011;34202;52.536;6.042;2022-08-16T03:03:47;8.90;;;7.00;;
48403;SDS011;34202;52.536;6.042;2022-08-16T03:08:48;15.00;;;8.30;;
48403;SDS011;34202;52.536;6.042;2022-08-16T03:13:50;10.80;;;8.70;;
48403;SDS011;34202;52.536;6.042;2022-08-16T03:18:52;9.00;;;8.10;;
48403;SDS011;34202;52.536;6.042;2022-08-16T03:23:53;9.80;;;8.70;;
48403;SDS011;34202;52.536;6.042;2022-08-16T03:28:53;9.70;;;8.70;;
48403;SDS011;34202;52.536;6.042;2022-08-16T03:33:54;12.00;;;9.90;;
48403;SDS011;34202;52.536;6.042;2022-08-16T03:38:54;9.50;;;7.70;;
48403;SDS011;34202;52.536;6.042;2022-08-16T03:43:55;12.10;;;9.20;;
48403;SDS011;34202;52.536;6.042;2022-08-16T03:48:55;10.50;;;8.60;;
48403;SDS011;34202;52.536;6.042;2022-08-16T03:53:56;8.70;;;7.80;;
48403;SDS011;34202;52.536;6.042;2022-08-16T03:58:56;10.90;;;8.80;;
48403;SDS011;34202;52.536;6.042;2022-08-16T04:03:57;11.00;;;8.20;;
48403;SDS011;34202;52.536;6.042;2022-08-16T04:08:57;10.00;;;8.30;;
48403;SDS011;34202;52.536;6.042;2022-08-16T04:13:58;9.60;;;8.10;;
48403;SDS011;34202;52.536;6.042;2022-08-16T04:18:58;10.30;;;9.30;;
48403;SDS011;34202;52.536;6.042;2022-08-16T04:23:59;8.70;;;7.80;;
48403;SDS011;34202;52.536;6.042;2022-08-16T04:29:00;9.10;;;8.20;;
48403;SDS011;34202;52.536;6.042;2022-08-16T04:34:01;8.90;;;8.00;;
48403;SDS011;34202;52.536;6.042;2022-08-16T04:39:01;8.10;;;7.30;;
48403;SDS011;34202;52.536;6.042;2022-08-16T04:44:02;12.90;;;7.80;;
48403;SDS011;34202;52.536;6.042;2022-08-16T04:49:02;9.50;;;8.20;;
48403;SDS011;34202;52.536;6.042;2022-08-16T04:54:03;13.00;;;9.10;;
48403;SDS011;34202;52.536;6.042;2022-08-16T04:59:03;10.30;;;9.20;;
48403;SDS011;34202;52.536;6.042;2022-08-16T05:04:04;10.90;;;9.00;;
48403;SDS011;34202;52.536;6.042;2022-08-16T05:09:05;10.30;;;9.30;;
48403;SDS011;34202;52.536;6.042;2022-08-16T05:14:05;10.90;;;8.90;;
48403;SDS011;34202;52.536;6.042;2022-08-16T05:19:06;10.20;;;9.10;;
48403;SDS011;34202;52.536;6.042;2022-08-16T05:24:07;11.20;;;10.00;;
48403;SDS011;34202;52.536;6.042;2022-08-16T05:29:08;12.90;;;10.50;;
48403;SDS011;34202;52.536;6.042;2022-08-16T05:34:09;12.70;;;10.60;;
48403;SDS011;34202;52.536;6.042;2022-08-16T05:39:10;13.00;;;10.50;;
48403;SDS011;34202;52.536;6.042;2022-08-16T05:44:12;13.80;;;12.40;;
48403;SDS011;34202;52.536;6.042;2022-08-16T05:49:14;14.60;;;13.10;;
48403;SDS011;34202;52.536;6.042;2022-08-16T05:54:15;15.00;;;13.20;;
48403;SDS011;34202;52.536;6.042;2022-08-16T05:59:17;15.70;;;14.00;;
48403;SDS011;34202;52.536;6.042;2022-08-16T06:04:18;16.70;;;15.10;;
48403;SDS011;34202;52.536;6.042;2022-08-16T06:09:19;18.60;;;14.80;;
48403;SDS011;34202;52.536;6.042;2022-08-16T06:14:20;21.30;;;16.20;;
48403;SDS011;34202;52.536;6.042;2022-08-16T06:19:20;20.10;;;16.60;;
48403;SDS011;34202;52.536;6.042;2022-08-16T06:24:21;18.20;;;16.20;;
48403;SDS011;34202;52.536;6.042;2022-08-16T06:29:21;26.30;;;17.60;;
48403;SDS011;34202;52.536;6.042;2022-08-16T06:34:21;21.20;;;16.80;;
48403;SDS011;34202;52.536;6.042;2022-08-16T06:39:22;22.80;;;19.90;;
48403;SDS011;34202;52.536;6.042;2022-08-16T06:44:22;20.40;;;18.20;;
48403;SDS011;34202;52.536;6.042;2022-08-16T06:49:22;23.10;;;18.50;;
48403;SDS011;34202;52.536;6.042;2022-08-16T06:54:23;19.10;;;16.00;;
48403;SDS011;34202;52.536;6.042;2022-08-16T06:59:23;20.10;;;18.00;;
48403;SDS011;34202;52.536;6.042;2022-08-16T07:04:24;22.60;;;17.60;;
48403;SDS011;34202;52.536;6.042;2022-08-16T07:09:25;21.00;;;17.50;;
48403;SDS011;34202;52.536;6.042;2022-08-16T07:14:25;22.60;;;17.90;;
48403;SDS011;34202;52.536;6.042;2022-08-16T07:19:26;20.40;;;18.40;;
48403;SDS011;34202;52.536;6.042;2022-08-16T07:24:31;25.90;;;20.30;;
48403;SDS011;34202;52.536;6.042;2022-08-16T07:29:31;21.90;;;19.30;;
48403;SDS011;34202;52.536;6.042;2022-08-16T07:34:32;25.70;;;19.70;;
48403;SDS011;34202;52.536;6.042;2022-08-16T07:39:33;21.20;;;18.60;;
48403;SDS011;34202;52.536;6.042;2022-08-16T07:44:34;17.30;;;15.50;;
48403;SDS011;34202;52.536;6.042;2022-08-16T07:49:34;19.00;;;15.40;;
48403;SDS011;34202;52.536;6.042;2022-08-16T07:54:34;16.30;;;12.70;;
48403;SDS011;34202;52.536;6.042;2022-08-16T07:59:35;16.90;;;13.50;;
48403;SDS011;34202;52.536;6.042;2022-08-16T08:04:35;16.20;;;12.60;;
48403;SDS011;34202;52.536;6.042;2022-08-16T08:09:37;15.30;;;12.40;;
48403;SDS011;34202;52.536;6.042;2022-08-16T08:14:38;14.50;;;11.00;;
48403;SDS011;34202;52.536;6.042;2022-08-16T08:19:38;13.00;;;10.90;;
48403;SDS011;34202;52.536;6.042;2022-08-16T08:24:40;12.50;;;10.20;;
48403;SDS011;34202;52.536;6.042;2022-08-16T08:29:40;14.70;;;11.80;;
48403;SDS011;34202;52.536;6.042;2022-08-16T08:34:41;11.90;;;10.30;;
48403;SDS011;34202;52.536;6.042;2022-08-16T08:39:41;11.20;;;10.00;;
48403;SDS011;34202;52.536;6.042;2022-08-16T08:44:42;13.30;;;9.40;;
48403;SDS011;34202;52.536;6.042;2022-08-16T08:49:42;12.00;;;9.40;;
48403;SDS011;34202;52.536;6.042;2022-08-16T08:54:42;11.00;;;8.20;;
48403;SDS011;34202;52.536;6.042;2022-08-16T08:59:43;10.00;;;8.10;;
48403;SDS011;34202;52.536;6.042;2022-08-16T09:04:45;9.40;;;8.40;;
48403;SDS011;34202;52.536;6.042;2022-08-16T09:09:45;9.60;;;7.50;;
48403;SDS011;34202;52.536;6.042;2022-08-16T09:14:46;8.60;;;7.60;;
48403;SDS011;34202;52.536;6.042;2022-08-16T09:19:46;8.70;;;7.60;;
48403;SDS011;34202;52.536;6.042;2022-08-16T09:24:47;10.10;;;7.40;;
48403;SDS011;34202;52.536;6.042;2022-08-16T09:29:49;8.80;;;6.10;;
48403;SDS011;34202;52.536;6.042;2022-08-16T09:34:49;7.30;;;6.60;;
48403;SDS011;34202;52.536;6.042;2022-08-16T09:39:50;11.20;;;6.70;;
48403;SDS011;34202;52.536;6.042;2022-08-16T09:44:51;8.50;;;6.40;;
48403;SDS011;34202;52.536;6.042;2022-08-16T09:49:52;7.30;;;6.60;;
48403;SDS011;34202;52.536;6.042;2022-08-16T09:54:52;6.80;;;6.10;;
48403;SDS011;34202;52.536;6.042;2022-08-16T09:59:53;8.90;;;6.60;;
48403;SDS011;34202;52.536;6.042;2022-08-16T10:04:54;7.60;;;5.60;;
48403;SDS011;34202;52.536;6.042;2022-08-16T10:09:55;8.70;;;5.40;;
48403;SDS011;34202;52.536;6.042;2022-08-16T10:14:56;7.50;;;6.70;;
48403;SDS011;34202;52.536;6.042;2022-08-16T10:19:56;9.50;;;6.10;;
48403;SDS011;34202;52.536;6.042;2022-08-16T10:24:57;7.90;;;5.00;;
48403;SDS011;34202;52.536;6.042;2022-08-16T10:29:57;8.30;;;5.90;;
48403;SDS011;34202;52.536;6.042;2022-08-16T10:34:58;8.10;;;4.20;;
48403;SDS011;34202;52.536;6.042;2022-08-16T10:39:59;4.90;;;3.80;;
48403;SDS011;34202;52.536;6.042;2022-08-16T10:45:00;10.20;;;3.50;;
48403;SDS011;34202;52.536;6.042;2022-08-16T10:50:02;5.70;;;3.10;;
48403;SDS011;34202;52.536;6.042;2022-08-16T10:55:05;9.00;;;3.40;;
48403;SDS011;34202;52.536;6.042;2022-08-16T11:00:12;7.50;;;3.10;;
48403;SDS011;34202;52.536;6.042;2022-08-16T11:05:14;5.00;;;1.90;;
48403;SDS011;34202;52.536;6.042;2022-08-16T11:10:17;7.90;;;2.10;;
48403;SDS011;34202;52.536;6.042;2022-08-16T11:15:20;2.60;;;2.10;;
48403;SDS011;34202;52.536;6.042;2022-08-16T11:20:20;2.90;;;2.00;;
48403;SDS011;34202;52.536;6.042;2022-08-16T11:25:22;2.60;;;2.20;;
48403;SDS011;34202;52.536;6.042;2022-08-16T11:30:25;3.90;;;2.30;;
48403;SDS011;34202;52.536;6.042;2022-08-16T11:35:29;2.70;;;2.00;;
48403;SDS011;34202;52.536;6.042;2022-08-16T11:40:39;3.00;;;2.40;;
48403;SDS011;34202;52.536;6.042;2022-08-16T11:45:47;3.70;;;2.60;;
48403;SDS011;34202;52.536;6.042;2022-08-16T11:50:48;5.60;;;2.80;;
48403;SDS011;34202;52.536;6.042;2022-08-16T11:55:49;4.30;;;2.70;;
48403;SDS011;34202;52.536;6.042;2022-08-16T12:00:53;6.00;;;2.30;;
48403;SDS011;34202;52.536;6.042;2022-08-16T12:05:56;5.90;;;2.80;;
48403;SDS011;34202;52.536;6.042;2022-08-16T12:10:59;2.90;;;2.00;;
48403;SDS011;34202;52.536;6.042;2022-08-16T12:16:00;4.30;;;2.90;;
48403;SDS011;34202;52.536;6.042;2022-08-16T12:21:01;3.20;;;2.80;;
48403;SDS011;34202;52.536;6.042;2022-08-16T12:26:02;5.00;;;3.50;;
48403;SDS011;34202;52.536;6.042;2022-08-16T12:31:03;2.90;;;2.50;;
48403;SDS011;34202;52.536;6.042;2022-08-16T12:36:03;4.20;;;2.90;;
48403;SDS011;34202;52.536;6.042;2022-08-16T12:41:04;4.70;;;3.50;;
48403;SDS011;34202;52.536;6.042;2022-08-16T12:46:04;5.40;;;3.60;;
48403;SDS011;34202;52.536;6.042;2022-08-16T12:51:06;6.50;;;3.20;;
48403;SDS011;34202;52.536;6.042;2022-08-16T12:56:10;2.30;;;2.00;;
48403;SDS011;34202;52.536;6.042;2022-08-16T13:01:11;5.50;;;4.10;;
48403;SDS011;34202;52.536;6.042;2022-08-16T13:06:12;2.80;;;2.60;;
48403;SDS011;34202;52.536;6.042;2022-08-16T13:11:16;6.00;;;4.20;;
48403;SDS011;34202;52.536;6.042;2022-08-16T13:16:21;5.10;;;3.80;;
48403;SDS011;34202;52.536;6.042;2022-08-16T13:21:22;5.90;;;5.30;;
48403;SDS011;34202;52.536;6.042;2022-08-16T13:26:23;12.70;;;5.50;;
48403;SDS011;34202;52.536;6.042;2022-08-16T13:31:24;9.30;;;6.70;;
48403;SDS011;34202;52.536;6.042;2022-08-16T13:36:25;9.40;;;6.80;;
48403;SDS011;34202;52.536;6.042;2022-08-16T13:41:25;10.20;;;5.90;;
48403;SDS011;34202;52.536;6.042;2022-08-16T13:46:27;11.30;;;7.50;;
48403;SDS011;34202;52.536;6.042;2022-08-16T13:51:29;11.30;;;8.20;;
48403;SDS011;34202;52.536;6.042;2022-08-16T13:56:30;12.90;;;9.20;;
48403;SDS011;34202;52.536;6.042;2022-08-16T14:01:34;11.90;;;9.00;;
48403;SDS011;34202;52.536;6.042;2022-08-16T14:06:34;11.40;;;10.00;;
48403;SDS011;34202;52.536;6.042;2022-08-16T14:11:34;11.00;;;9.60;;
48403;SDS011;34202;52.536;6.042;2022-08-16T14:16:34;12.10;;;10.80;;
48403;SDS011;34202;52.536;6.042;2022-08-16T14:21:35;13.40;;;11.20;;
48403;SDS011;34202;52.536;6.042;2022-08-16T14:26:36;16.90;;;11.50;;
48403;SDS011;34202;52.536;6.042;2022-08-16T14:31:36;19.30;;;11.40;;
48403;SDS011;34202;52.536;6.042;2022-08-16T14:36:37;11.90;;;9.70;;
48403;SDS011;34202;52.536;6.042;2022-08-16T14:41:37;11.80;;;10.20;;
48403;SDS011;34202;52.536;6.042;2022-08-16T14:46:38;16.00;;;11.30;;
48403;SDS011;34202;52.536;6.042;2022-08-16T14:51:38;18.70;;;11.90;;
48403;SDS011;34202;52.536;6.042;2022-08-16T14:56:38;13.80;;;11.00;;
48403;SDS011;34202;52.536;6.042;2022-08-16T15:01:39;12.10;;;10.80;;
48403;SDS011;34202;52.536;6.042;2022-08-16T15:06:39;16.80;;;10.60;;
48403;SDS011;34202;52.536;6.042;2022-08-16T15:11:39;12.80;;;9.30;;
48403;SDS011;34202;52.536;6.042;2022-08-16T15:16:40;13.90;;;10.80;;
48403;SDS011;34202;52.536;6.042;2022-08-16T15:21:40;12.70;;;10.30;;
48403;SDS011;34202;52.536;6.042;2022-08-16T15:26:41;12.50;;;10.90;;
48403;SDS011;34202;52.536;6.042;2022-08-16T15:31:43;12.20;;;9.50;;
48403;SDS011;34202;52.536;6.042;2022-08-16T15:36:45;11.30;;;10.10;;
48403;SDS011;34202;52.536;6.042;2022-08-16T15:46:57;13.50;;;12.10;;
48403;SDS011;34202;52.536;6.042;2022-08-16T15:51:57;14.70;;;9.80;;
48403;SDS011;34202;52.536;6.042;2022-08-16T15:56:59;13.60;;;11.40;;
48403;SDS011;34202;52.536;6.042;2022-08-16T16:02:00;13.40;;;11.90;;
48403;SDS011;34202;52.536;6.042;2022-08-16T16:07:00;16.60;;;13.30;;
48403;SDS011;34202;52.536;6.042;2022-08-16T16:12:06;12.70;;;11.40;;
48403;SDS011;34202;52.536;6.042;2022-08-16T16:17:07;18.50;;;12.20;;
48403;SDS011;34202;52.536;6.042;2022-08-16T16:22:07;17.90;;;13.50;;
48403;SDS011;34202;52.536;6.042;2022-08-16T16:27:08;27.30;;;15.80;;
48403;SDS011;34202;52.536;6.042;2022-08-16T16:32:08;18.40;;;16.40;;
48403;SDS011;34202;52.536;6.042;2022-08-16T16:37:10;16.70;;;14.20;;
48403;SDS011;34202;52.536;6.042;2022-08-16T16:42:10;16.40;;;13.80;;
48403;SDS011;34202;52.536;6.042;2022-08-16T16:47:10;14.20;;;12.80;;
48403;SDS011;34202;52.536;6.042;2022-08-16T16:52:11;17.50;;;11.00;;
48403;SDS011;34202;52.536;6.042;2022-08-16T16:57:14;14.10;;;12.60;;
48403;SDS011;34202;52.536;6.042;2022-08-16T17:02:34;17.40;;;12.70;;
48403;SDS011;34202;52.536;6.042;2022-08-16T17:07:35;15.60;;;12.50;;
48403;SDS011;34202;52.536;6.042;2022-08-16T17:12:36;11.40;;;10.20;;
48403;SDS011;34202;52.536;6.042;2022-08-16T17:17:36;12.10;;;11.00;;
48403;SDS011;34202;52.536;6.042;2022-08-16T17:22:37;18.00;;;13.40;;
48403;SDS011;34202;52.536;6.042;2022-08-16T17:27:38;17.50;;;12.60;;
48403;SDS011;34202;52.536;6.042;2022-08-16T17:32:39;12.90;;;11.70;;
48403;SDS011;34202;52.536;6.042;2022-08-16T17:37:40;13.90;;;11.30;;
48403;SDS011;34202;52.536;6.042;2022-08-16T17:42:41;18.50;;;13.30;;
48403;SDS011;34202;52.536;6.042;2022-08-16T17:47:42;12.50;;;11.10;;
48403;SDS011;34202;52.536;6.042;2022-08-16T17:52:53;12.90;;;11.40;;
48403;SDS011;34202;52.536;6.042;2022-08-16T17:57:54;15.50;;;12.40;;
48403;SDS011;34202;52.536;6.042;2022-08-16T18:02:55;17.00;;;11.20;;
48403;SDS011;34202;52.536;6.042;2022-08-16T18:07:58;14.30;;;11.70;;
48403;SDS011;34202;52.536;6.042;2022-08-16T18:12:59;14.20;;;12.80;;
48403;SDS011;34202;52.536;6.042;2022-08-16T18:17:59;14.40;;;12.90;;
48403;SDS011;34202;52.536;6.042;2022-08-16T18:23:02;13.70;;;12.20;;
48403;SDS011;34202;52.536;6.042;2022-08-16T18:28:04;20.80;;;13.80;;
48403;SDS011;34202;52.536;6.042;2022-08-16T18:33:04;16.30;;;13.30;;
48403;SDS011;34202;52.536;6.042;2022-08-16T18:38:05;15.90;;;14.30;;
48403;SDS011;34202;52.536;6.042;2022-08-16T18:43:07;17.70;;;14.00;;
48403;SDS011;34202;52.536;6.042;2022-08-16T18:48:10;25.80;;;14.80;;
48403;SDS011;34202;52.536;6.042;2022-08-16T18:53:12;14.00;;;12.80;;
48403;SDS011;34202;52.536;6.042;2022-08-16T18:58:14;17.40;;;13.40;;
48403;SDS011;34202;52.536;6.042;2022-08-16T19:03:16;16.50;;;14.60;;
48403;SDS011;34202;52.536;6.042;2022-08-16T19:08:25;14.00;;;12.90;;
48403;SDS011;34202;52.536;6.042;2022-08-16T19:13:26;15.80;;;13.80;;
48403;SDS011;34202;52.536;6.042;2022-08-16T19:18:28;16.20;;;14.60;;
48403;SDS011;34202;52.536;6.042;2022-08-16T19:23:30;15.80;;;14.30;;
48403;SDS011;34202;52.536;6.042;2022-08-16T19:28:34;16.70;;;14.90;;
48403;SDS011;34202;52.536;6.042;2022-08-16T19:33:39;15.40;;;13.80;;
48403;SDS011;34202;52.536;6.042;2022-08-16T19:38:40;14.30;;;12.90;;
48403;SDS011;34202;52.536;6.042;2022-08-16T19:43:41;16.50;;;14.90;;
48403;SDS011;34202;52.536;6.042;2022-08-16T19:48:41;15.20;;;13.40;;
48403;SDS011;34202;52.536;6.042;2022-08-16T19:53:44;16.50;;;14.30;;
48403;SDS011;34202;52.536;6.042;2022-08-16T19:58:44;18.70;;;14.50;;
48403;SDS011;34202;52.536;6.042;2022-08-16T20:03:45;18.60;;;14.80;;
48403;SDS011;34202;52.536;6.042;2022-08-16T20:08:45;17.20;;;15.40;;
48403;SDS011;34202;52.536;6.042;2022-08-16T20:13:45;16.30;;;13.70;;
48403;SDS011;34202;52.536;6.042;2022-08-16T20:18:45;17.10;;;15.50;;
48403;SDS011;34202;52.536;6.042;2022-08-16T20:23:46;62.90;;;17.80;;
48403;SDS011;34202;52.536;6.042;2022-08-16T20:28:46;16.30;;;14.50;;
48403;SDS011;34202;52.536;6.042;2022-08-16T20:33:47;16.50;;;14.50;;
48403;SDS011;34202;52.536;6.042;2022-08-16T20:38:47;16.60;;;15.10;;
48403;SDS011;34202;52.536;6.042;2022-08-16T20:43:49;15.90;;;14.20;;
48403;SDS011;34202;52.536;6.042;2022-08-16T20:48:50;19.90;;;15.20;;
48403;SDS011;34202;52.536;6.042;2022-08-16T20:53:50;16.90;;;15.30;;
48403;SDS011;34202;52.536;6.042;2022-08-16T20:58:50;15.50;;;14.00;;
48403;SDS011;34202;52.536;6.042;2022-08-16T21:03:51;13.80;;;12.60;;
48403;SDS011;34202;52.536;6.042;2022-08-16T21:08:51;14.10;;;12.40;;
48403;SDS011;34202;52.536;6.042;2022-08-16T21:13:52;15.10;;;12.40;;
48403;SDS011;34202;52.536;6.042;2022-08-16T21:18:52;15.00;;;12.80;;
48403;SDS011;34202;52.536;6.042;2022-08-16T21:23:52;19.60;;;14.50;;
48403;SDS011;34202;52.536;6.042;2022-08-16T21:28:53;17.90;;;12.80;;
48403;SDS011;34202;52.536;6.042;2022-08-16T21:33:54;15.60;;;14.00;;
48403;SDS011;34202;52.536;6.042;2022-08-16T21:38:55;17.30;;;14.00;;
48403;SDS011;34202;52.536;6.042;2022-08-16T21:43:55;14.80;;;13.40;;
48403;SDS011;34202;52.536;6.042;2022-08-16T21:48:56;14.40;;;12.90;;
48403;SDS011;34202;52.536;6.042;2022-08-16T21:53:56;14.90;;;13.40;;
48403;SDS011;34202;52.536;6.042;2022-08-16T21:58:56;16.40;;;13.20;;
48403;SDS011;34202;52.536;6.042;2022-08-16T22:03:57;16.50;;;14.20;;
48403;SDS011;34202;52.536;6.042;2022-08-16T22:08:57;14.80;;;13.50;;
48403;SDS011;34202;52.536;6.042;2022-08-16T22:13:57;15.50;;;14.00;;
48403;SDS011;34202;52.536;6.042;2022-08-16T22:18:59;16.30;;;14.70;;
48403;SDS011;34202;52.536;6.042;2022-08-16T22:24:00;17.10;;;15.10;;
48403;SDS011;34202;52.536;6.042;2022-08-16T22:29:03;14.80;;;13.50;;
48403;SDS011;34202;52.536;6.042;2022-08-16T22:34:09;18.10;;;16.10;;
48403;SDS011;34202;52.536;6.042;2022-08-16T22:39:11;17.70;;;15.80;;
48403;SDS011;34202;52.536;6.042;2022-08-16T22:44:13;16.60;;;15.10;;
48403;SDS011;34202;52.536;6.042;2022-08-16T22:49:15;20.70;;;18.70;;
48403;SDS011;34202;52.536;6.042;2022-08-16T22:54:15;20.00;;;18.10;;
48403;SDS011;34202;52.536;6.042;2022-08-16T22:59:16;20.60;;;18.70;;
48403;SDS011;34202;52.536;6.042;2022-08-16T23:04:16;19.20;;;17.50;;
48403;SDS011;34202;52.536;6.042;2022-08-16T23:09:17;20.80;;;18.80;;
48403;SDS011;34202;52.536;6.042;2022-08-16T23:14:17;22.30;;;18.70;;
48403;SDS011;34202;52.536;6.042;2022-08-16T23:19:18;17.70;;;16.00;;
48403;SDS011;34202;52.536;6.042;2022-08-16T23:24:18;24.70;;;18.40;;
48403;SDS011;34202;52.536;6.042;2022-08-16T23:29:20;19.10;;;17.30;;
48403;SDS011;34202;52.536;6.042;2022-08-16T23:34:21;18.00;;;16.50;;
48403;SDS011;34202;52.536;6.042;2022-08-16T23:39:23;20.50;;;18.00;;
48403;SDS011;34202;52.536;6.042;2022-08-16T23:44:24;21.20;;;19.10;;
48403;SDS011;34202;52.536;6.042;2022-08-16T23:49:24;18.70;;;16.90;;
48403;SDS011;34202;52.536;6.042;2022-08-16T23:54:24;21.30;;;18.70;;
48403;SDS011;34202;52.536;6.042;2022-08-16T23:59:25;21.20;;;18.70;;
